createdAt,value
2023-03-21T00:00:36.390Z,0
2023-03-21T00:01:36.385Z,0
2023-03-21T00:02:36.452Z,0
2023-03-21T00:03:36.450Z,0
2023-03-21T00:04:48.708Z,0
2023-03-21T00:05:36.896Z,0
2023-03-21T00:06:36.401Z,0
2023-03-21T00:07:36.386Z,0
2023-03-21T00:08:36.390Z,0
2023-03-21T00:09:36.393Z,0
2023-03-21T00:11:36.392Z,0
2023-03-21T00:12:36.432Z,0
2023-03-21T00:13:36.389Z,0
2023-03-21T00:14:36.404Z,0
2023-03-21T00:15:42.502Z,0
2023-03-21T00:16:36.704Z,0
2023-03-21T00:17:36.395Z,0
2023-03-21T00:18:36.403Z,0
2023-03-21T00:19:36.394Z,0
2023-03-21T00:20:36.392Z,0
2023-03-21T00:21:46.463Z,0
2023-03-21T00:22:36.420Z,0
2023-03-21T00:23:36.413Z,0
2023-03-21T00:24:36.413Z,0
2023-03-21T00:25:36.602Z,0
2023-03-21T00:26:36.413Z,0
2023-03-21T00:27:50.276Z,0
2023-03-21T00:28:36.424Z,0
2023-03-21T00:29:36.408Z,0
2023-03-21T00:30:36.417Z,0
2023-03-21T00:31:36.409Z,0
2023-03-21T00:32:42.804Z,0
2023-03-21T00:33:36.411Z,0
2023-03-21T00:34:42.816Z,0
2023-03-21T00:35:58.603Z,0
2023-03-21T00:36:36.476Z,0
2023-03-21T00:37:36.427Z,0
2023-03-21T00:38:36.424Z,0
2023-03-21T00:39:36.482Z,0
2023-03-21T00:40:40.779Z,0
2023-03-21T00:41:42.725Z,0
2023-03-21T00:42:36.410Z,0
2023-03-21T00:43:36.408Z,0
2023-03-21T00:44:36.431Z,0
2023-03-21T00:45:36.638Z,0
2023-03-21T00:46:45.388Z,0
2023-03-21T00:47:36.513Z,0
2023-03-21T00:48:36.460Z,0
2023-03-21T00:49:36.404Z,0
2023-03-21T00:50:36.411Z,0
2023-03-21T00:51:36.422Z,0
2023-03-21T00:52:40.757Z,0
2023-03-21T00:53:36.421Z,0
2023-03-21T00:54:36.418Z,0
2023-03-21T00:55:36.639Z,0
2023-03-21T00:56:36.419Z,0
2023-03-21T00:57:39.472Z,0
2023-03-21T00:58:36.415Z,0
2023-03-21T00:59:36.405Z,0
2023-03-21T01:00:36.490Z,0
2023-03-21T01:01:36.487Z,0
2023-03-21T01:02:36.418Z,0
2023-03-21T01:03:36.418Z,0
2023-03-21T01:04:36.423Z,0
2023-03-21T01:05:36.753Z,0
2023-03-21T01:06:36.421Z,0
2023-03-21T01:07:36.428Z,0
2023-03-21T01:08:48.849Z,0
2023-03-21T01:09:36.420Z,0
2023-03-21T01:10:36.418Z,0
2023-03-21T01:11:36.438Z,0
2023-03-21T01:12:36.415Z,0
2023-03-21T01:13:38.346Z,0
2023-03-21T01:14:36.417Z,0
2023-03-21T01:15:36.622Z,0
2023-03-21T01:16:36.522Z,0
2023-03-21T01:17:36.430Z,0
2023-03-21T01:18:36.432Z,0
2023-03-21T01:19:50.512Z,0
2023-03-21T01:20:36.434Z,0
2023-03-21T01:21:36.417Z,0
2023-03-21T01:22:36.442Z,0
2023-03-21T01:23:36.425Z,0
2023-03-21T01:24:40.400Z,0
2023-03-21T01:25:36.605Z,0
2023-03-21T01:26:36.427Z,0
2023-03-21T01:27:36.427Z,0
2023-03-21T01:28:36.426Z,0
2023-03-21T01:29:36.420Z,0
2023-03-21T01:30:41.549Z,0
2023-03-21T01:31:36.455Z,0
2023-03-21T01:32:36.462Z,0
2023-03-21T01:33:36.430Z,0
2023-03-21T01:34:36.432Z,0
2023-03-21T01:35:45.008Z,0
2023-03-21T01:36:36.450Z,0
2023-03-21T01:37:36.433Z,0
2023-03-21T01:38:36.438Z,0
2023-03-21T01:39:36.434Z,0
2023-03-21T01:40:36.438Z,0
2023-03-21T01:41:42.791Z,0
2023-03-21T01:42:36.443Z,0
2023-03-21T01:43:36.455Z,0
2023-03-21T01:44:36.435Z,0
2023-03-21T01:45:36.737Z,0
2023-03-21T01:46:47.665Z,0
2023-03-21T01:47:36.441Z,0
2023-03-21T01:48:36.466Z,0
2023-03-21T01:49:36.471Z,0
2023-03-21T01:50:36.435Z,0
2023-03-21T01:51:36.437Z,0
2023-03-21T01:52:38.203Z,0
2023-03-21T01:53:36.461Z,0
2023-03-21T01:54:36.452Z,0
2023-03-21T01:55:36.808Z,0
2023-03-21T01:56:36.443Z,0
2023-03-21T01:57:43.681Z,0
2023-03-21T01:58:36.441Z,0
2023-03-21T01:59:36.445Z,0
2023-03-21T02:00:36.452Z,0
2023-03-21T02:01:36.438Z,0
2023-03-21T02:02:36.437Z,0
2023-03-21T02:03:36.677Z,0
2023-03-21T02:04:36.470Z,0
2023-03-21T02:05:36.645Z,0
2023-03-21T02:06:36.448Z,0
2023-03-21T02:07:36.446Z,0
2023-03-21T02:08:39.768Z,0
2023-03-21T02:09:36.455Z,0
2023-03-21T02:10:36.448Z,0
2023-03-21T02:11:36.466Z,0
2023-03-21T02:12:36.449Z,0
2023-03-21T02:13:36.453Z,0
2023-03-21T02:14:36.454Z,0
2023-03-21T02:15:36.692Z,0
2023-03-21T02:16:36.546Z,0
2023-03-21T02:17:36.451Z,0
2023-03-21T02:18:36.456Z,0
2023-03-21T02:19:44.510Z,0
2023-03-21T02:20:36.473Z,0
2023-03-21T02:21:36.459Z,0
2023-03-21T02:22:36.459Z,0
2023-03-21T02:23:36.449Z,0
2023-03-21T02:24:36.448Z,0
2023-03-21T02:25:36.608Z,0
2023-03-21T02:26:42.235Z,0
2023-03-21T02:27:36.455Z,0
2023-03-21T02:28:36.465Z,0
2023-03-21T02:29:36.460Z,0
2023-03-21T02:30:45.785Z,0
2023-03-21T02:31:36.516Z,0
2023-03-21T02:32:37.928Z,0
2023-03-21T02:33:36.448Z,0
2023-03-21T02:34:36.454Z,0
2023-03-21T02:35:41.447Z,0
2023-03-21T02:36:36.567Z,0
2023-03-21T02:37:38.528Z,0
2023-03-21T02:38:36.462Z,0
2023-03-21T02:39:36.461Z,0
2023-03-21T02:40:36.724Z,0
2023-03-21T02:41:40.258Z,0
2023-03-21T02:42:36.458Z,0
2023-03-21T02:43:36.452Z,0
2023-03-21T02:44:36.456Z,0
2023-03-21T02:45:36.448Z,0
2023-03-21T02:46:44.105Z,0
2023-03-21T02:47:36.451Z,0
2023-03-21T02:48:49.662Z,0
2023-03-21T02:49:36.454Z,0
2023-03-21T02:50:36.687Z,0
2023-03-21T02:51:36.454Z,0
2023-03-21T02:52:39.395Z,0
2023-03-21T02:53:36.454Z,0
2023-03-21T02:54:47.464Z,0
2023-03-21T02:55:36.451Z,0
2023-03-21T02:56:36.460Z,0
2023-03-21T02:57:42.424Z,0
2023-03-21T02:58:36.465Z,0
2023-03-21T02:59:41.795Z,0
2023-03-21T03:00:36.697Z,0
2023-03-21T03:01:36.482Z,0
2023-03-21T03:02:36.464Z,0
2023-03-21T03:03:36.462Z,0
2023-03-21T03:04:36.554Z,0
2023-03-21T03:05:36.457Z,0
2023-03-21T03:06:36.474Z,0
2023-03-21T03:07:36.478Z,0
2023-03-21T03:08:42.999Z,0
2023-03-21T03:09:36.473Z,0
2023-03-21T03:10:36.641Z,0
2023-03-21T03:11:36.481Z,0
2023-03-21T03:12:36.488Z,0
2023-03-21T03:13:36.464Z,0
2023-03-21T03:14:49.796Z,0
2023-03-21T03:15:36.525Z,0
2023-03-21T03:16:36.459Z,0
2023-03-21T03:17:36.469Z,0
2023-03-21T03:18:36.479Z,0
2023-03-21T03:19:44.607Z,0
2023-03-21T03:20:36.853Z,0
2023-03-21T03:21:36.478Z,0
2023-03-21T03:22:36.470Z,0
2023-03-21T03:23:36.485Z,0
2023-03-21T03:24:36.495Z,0
2023-03-21T03:25:42.708Z,0
2023-03-21T03:26:36.463Z,0
2023-03-21T03:27:36.495Z,0
2023-03-21T03:28:36.476Z,0
2023-03-21T03:29:36.485Z,0
2023-03-21T03:30:43.319Z,0
2023-03-21T03:31:36.510Z,0
2023-03-21T03:32:36.478Z,0
2023-03-21T03:33:36.497Z,0
2023-03-21T03:34:36.492Z,0
2023-03-21T03:35:36.518Z,0
2023-03-21T03:36:36.524Z,0
2023-03-21T03:37:36.479Z,0
2023-03-21T03:38:36.486Z,0
2023-03-21T03:39:36.476Z,0
2023-03-21T03:40:36.813Z,0
2023-03-21T03:41:56.534Z,0
2023-03-21T03:42:36.499Z,0
2023-03-21T03:43:36.484Z,0
2023-03-21T03:44:36.489Z,0
2023-03-21T03:45:36.484Z,0
2023-03-21T03:46:36.540Z,0
2023-03-21T03:47:42.021Z,0
2023-03-21T03:48:36.604Z,0
2023-03-21T03:49:36.491Z,0
2023-03-21T03:50:36.759Z,0
2023-03-21T03:51:36.493Z,0
2023-03-21T03:52:38.360Z,0
2023-03-21T03:53:36.484Z,0
2023-03-21T03:54:36.484Z,0
2023-03-21T03:55:36.488Z,0
2023-03-21T03:56:36.529Z,0
2023-03-21T03:57:36.493Z,0
2023-03-21T03:58:45.158Z,0
2023-03-21T03:59:36.477Z,0
2023-03-21T04:00:36.720Z,0
2023-03-21T04:01:36.543Z,0
2023-03-21T04:02:36.531Z,0
2023-03-21T04:03:47.827Z,0
2023-03-21T04:04:36.536Z,0
2023-03-21T04:05:36.485Z,0
2023-03-21T04:06:36.490Z,0
2023-03-21T04:07:36.502Z,0
2023-03-21T04:08:36.492Z,0
2023-03-21T04:09:43.942Z,0
2023-03-21T04:10:36.789Z,0
2023-03-21T04:11:36.488Z,0
2023-03-21T04:12:36.514Z,0
2023-03-21T04:13:36.481Z,0
2023-03-21T04:14:44.287Z,0
2023-03-21T04:15:36.490Z,0
2023-03-21T04:16:36.524Z,0
2023-03-21T04:17:36.493Z,0
2023-03-21T04:18:36.487Z,0
2023-03-21T04:19:36.498Z,0
2023-03-21T04:20:43.323Z,0
2023-03-21T04:21:36.493Z,0
2023-03-21T04:22:36.494Z,0
2023-03-21T04:23:36.486Z,0
2023-03-21T04:24:36.491Z,0
2023-03-21T04:25:38.586Z,0
2023-03-21T04:26:36.509Z,0
2023-03-21T04:27:36.496Z,0
2023-03-21T04:28:36.517Z,0
2023-03-21T04:29:36.497Z,0
2023-03-21T04:30:36.894Z,0
2023-03-21T04:31:36.566Z,0
2023-03-21T04:32:36.496Z,0
2023-03-21T04:33:36.499Z,0
2023-03-21T04:34:36.499Z,0
2023-03-21T04:35:37.599Z,0
2023-03-21T04:36:36.508Z,0
2023-03-21T04:37:36.511Z,0
2023-03-21T04:38:36.500Z,0
2023-03-21T04:39:36.494Z,0
2023-03-21T04:40:36.784Z,0
2023-03-21T04:41:36.493Z,0
2023-03-21T04:42:36.500Z,0
2023-03-21T04:43:36.534Z,0
2023-03-21T04:44:36.529Z,0
2023-03-21T04:45:36.551Z,0
2023-03-21T04:46:36.522Z,0
2023-03-21T04:47:36.508Z,0
2023-03-21T04:48:36.508Z,0
2023-03-21T04:49:36.510Z,0
2023-03-21T04:50:36.654Z,0
2023-03-21T04:51:36.516Z,0
2023-03-21T04:52:36.520Z,0
2023-03-21T04:53:36.512Z,0
2023-03-21T04:54:36.504Z,0
2023-03-21T04:55:36.754Z,0
2023-03-21T04:56:36.581Z,0
2023-03-21T04:57:36.505Z,0
2023-03-21T04:58:36.505Z,0
2023-03-21T04:59:36.517Z,0
2023-03-21T05:00:36.533Z,0
2023-03-21T05:01:36.512Z,0
2023-03-21T05:02:36.519Z,0
2023-03-21T05:03:36.547Z,0
2023-03-21T05:04:36.517Z,0
2023-03-21T05:05:36.744Z,0
2023-03-21T05:06:36.527Z,0
2023-03-21T05:07:36.530Z,0
2023-03-21T05:08:36.526Z,0
2023-03-21T05:09:36.513Z,0
2023-03-21T05:10:36.531Z,0
2023-03-21T05:11:36.537Z,0
2023-03-21T05:12:36.524Z,0
2023-03-21T05:13:36.515Z,0
2023-03-21T05:14:36.519Z,0
2023-03-21T05:15:36.798Z,0
2023-03-21T05:16:36.678Z,0
2023-03-21T05:17:36.529Z,0
2023-03-21T05:18:36.533Z,0
2023-03-21T05:19:36.538Z,0
2023-03-21T05:20:36.526Z,0
2023-03-21T05:21:36.530Z,0
2023-03-21T05:22:36.522Z,0
2023-03-21T05:23:36.524Z,0
2023-03-21T05:24:36.533Z,0
2023-03-21T05:25:36.818Z,0
2023-03-21T05:26:36.525Z,0
2023-03-21T05:27:36.601Z,0
2023-03-21T05:28:36.531Z,0
2023-03-21T05:29:36.550Z,0
2023-03-21T05:30:36.598Z,0
2023-03-21T05:31:36.536Z,0
2023-03-21T05:32:36.573Z,0
2023-03-21T05:33:36.527Z,0
2023-03-21T05:34:36.537Z,0
2023-03-21T05:35:36.860Z,0
2023-03-21T05:36:36.539Z,0
2023-03-21T05:37:36.558Z,0
2023-03-21T05:38:36.549Z,0
2023-03-21T05:39:36.538Z,0
2023-03-21T05:40:36.542Z,0
2023-03-21T05:41:36.577Z,0
2023-03-21T05:42:36.540Z,0
2023-03-21T05:43:36.554Z,0
2023-03-21T05:44:36.549Z,0
2023-03-21T05:45:36.679Z,0
2023-03-21T05:46:36.584Z,0
2023-03-21T05:47:36.543Z,0
2023-03-21T05:48:36.608Z,0
2023-03-21T05:49:36.543Z,0
2023-03-21T05:50:36.543Z,0
2023-03-21T05:51:36.549Z,0
2023-03-21T05:52:36.553Z,0
2023-03-21T05:53:36.541Z,0
2023-03-21T05:54:36.553Z,0
2023-03-21T05:55:36.843Z,0
2023-03-21T05:56:36.547Z,0
2023-03-21T05:57:36.564Z,0
2023-03-21T05:58:36.556Z,0
2023-03-21T05:59:36.545Z,0
2023-03-21T06:00:36.568Z,0
2023-03-21T06:01:36.558Z,0
2023-03-21T06:02:36.612Z,0
2023-03-21T06:03:36.595Z,0
2023-03-21T06:04:36.582Z,0
2023-03-21T06:05:36.694Z,0
2023-03-21T06:06:36.553Z,0
2023-03-21T06:07:36.549Z,0
2023-03-21T06:08:36.565Z,0
2023-03-21T06:09:36.559Z,0
2023-03-21T06:10:36.562Z,0
2023-03-21T06:11:36.568Z,0
2023-03-21T06:12:36.558Z,0
2023-03-21T06:13:36.559Z,0
2023-03-21T06:14:36.554Z,0
2023-03-21T06:15:37.005Z,0
2023-03-21T06:16:36.562Z,0
2023-03-21T06:17:36.555Z,0
2023-03-21T06:18:36.559Z,0
2023-03-21T06:19:36.566Z,0
2023-03-21T06:20:36.590Z,0
2023-03-21T06:21:36.562Z,0
2023-03-21T06:22:36.566Z,0
2023-03-21T06:23:36.568Z,0
2023-03-21T06:24:36.571Z,0
2023-03-21T06:25:36.803Z,0
2023-03-21T06:26:36.597Z,0
2023-03-21T06:27:36.575Z,0
2023-03-21T06:28:36.586Z,0
2023-03-21T06:29:36.563Z,0
2023-03-21T06:30:36.570Z,0
2023-03-21T06:31:36.639Z,0
2023-03-21T06:32:36.579Z,0
2023-03-21T06:33:36.573Z,0
2023-03-21T06:34:38.409Z,0
2023-03-21T06:35:36.871Z,0
2023-03-21T06:36:36.606Z,0
2023-03-21T06:37:36.575Z,0
2023-03-21T06:38:36.569Z,0
2023-03-21T06:39:36.587Z,0
2023-03-21T06:40:36.565Z,0
2023-03-21T06:41:36.567Z,0
2023-03-21T06:42:36.584Z,0
2023-03-21T06:43:36.595Z,0
2023-03-21T06:44:36.575Z,0
2023-03-21T06:45:36.994Z,0
2023-03-21T06:46:36.600Z,0
2023-03-21T06:47:36.583Z,0
2023-03-21T06:48:36.597Z,0
2023-03-21T06:49:36.579Z,0
2023-03-21T06:50:36.585Z,0
2023-03-21T06:51:36.584Z,0
2023-03-21T06:52:36.599Z,0
2023-03-21T06:53:36.593Z,0
2023-03-21T06:54:36.584Z,0
2023-03-21T06:55:36.920Z,0
2023-03-21T06:56:36.578Z,0
2023-03-21T06:57:36.594Z,0
2023-03-21T06:58:36.596Z,0
2023-03-21T06:59:36.575Z,0
2023-03-21T07:00:36.611Z,0
2023-03-21T07:01:36.600Z,0
2023-03-21T07:02:36.648Z,0
2023-03-21T07:03:36.587Z,0
2023-03-21T07:04:36.601Z,0
2023-03-21T07:05:36.996Z,0
2023-03-21T07:06:36.589Z,0
2023-03-21T07:07:36.612Z,0
2023-03-21T07:08:36.617Z,0
2023-03-21T07:09:36.595Z,0
2023-03-21T07:10:36.608Z,0
2023-03-21T07:11:36.609Z,0
2023-03-21T07:12:36.597Z,0
2023-03-21T07:13:36.611Z,0
2023-03-21T07:14:36.597Z,0
2023-03-21T07:15:36.759Z,0
2023-03-21T07:16:36.666Z,0
2023-03-21T07:17:36.607Z,0
2023-03-21T07:18:36.604Z,0
2023-03-21T07:19:36.601Z,0
2023-03-21T07:20:36.629Z,0
2023-03-21T07:21:36.596Z,0
2023-03-21T07:22:36.633Z,0
2023-03-21T07:23:36.600Z,0
2023-03-21T07:24:36.636Z,0
2023-03-21T07:25:36.963Z,0
2023-03-21T07:26:36.625Z,0
2023-03-21T07:27:37.097Z,0
2023-03-21T07:28:36.607Z,0
2023-03-21T07:29:36.609Z,0
2023-03-21T07:30:36.625Z,0
2023-03-21T07:31:36.699Z,0
2023-03-21T07:32:36.614Z,0
2023-03-21T07:33:36.620Z,0
2023-03-21T07:34:36.624Z,0
2023-03-21T07:35:37.022Z,0
2023-03-21T07:36:36.623Z,0
2023-03-21T07:37:38.086Z,0
2023-03-21T07:38:36.640Z,0
2023-03-21T07:39:36.623Z,0
2023-03-21T07:40:36.952Z,0
2023-03-21T07:41:36.625Z,0
2023-03-21T07:42:36.644Z,0
2023-03-21T07:43:37.235Z,0
2023-03-21T07:44:36.642Z,0
2023-03-21T07:45:36.837Z,0
2023-03-21T07:46:36.637Z,0
2023-03-21T07:47:36.660Z,0
2023-03-21T07:48:36.641Z,0
2023-03-21T07:49:36.621Z,0
2023-03-21T07:50:36.633Z,0
2023-03-21T07:51:36.633Z,0
2023-03-21T07:52:36.629Z,0
2023-03-21T07:53:36.627Z,0
2023-03-21T07:54:36.624Z,0
2023-03-21T07:55:36.933Z,0
2023-03-21T07:56:36.662Z,0
2023-03-21T07:57:36.623Z,0
2023-03-21T07:58:36.639Z,0
2023-03-21T07:59:36.641Z,0
2023-03-21T08:00:36.647Z,0
2023-03-21T08:01:36.632Z,0
2023-03-21T08:02:36.676Z,0
2023-03-21T08:03:36.673Z,0
2023-03-21T08:04:36.636Z,0
2023-03-21T08:05:37.143Z,0
2023-03-21T08:06:36.643Z,0
2023-03-21T08:07:36.651Z,0
2023-03-21T08:08:36.648Z,0
2023-03-21T08:09:36.636Z,0
2023-03-21T08:10:36.636Z,0
2023-03-21T08:11:36.644Z,0
2023-03-21T08:12:36.661Z,0
2023-03-21T08:13:36.637Z,0
2023-03-21T08:14:36.666Z,0
2023-03-21T08:15:36.900Z,0
2023-03-21T08:16:36.733Z,0
2023-03-21T08:17:36.687Z,0
2023-03-21T08:18:36.660Z,0
2023-03-21T08:19:36.643Z,0
2023-03-21T08:20:36.649Z,0
2023-03-21T08:21:36.650Z,0
2023-03-21T08:22:36.646Z,0
2023-03-21T08:23:36.657Z,0
2023-03-21T08:24:36.668Z,0
2023-03-21T08:25:36.972Z,0
2023-03-21T08:26:36.651Z,0
2023-03-21T08:27:36.668Z,0
2023-03-21T08:28:36.707Z,0
2023-03-21T08:29:36.665Z,0
2023-03-21T08:30:36.690Z,0
2023-03-21T08:31:36.661Z,0
2023-03-21T08:32:36.673Z,0
2023-03-21T08:33:36.664Z,0
2023-03-21T08:34:36.656Z,0
2023-03-21T08:35:39.043Z,0
2023-03-21T08:36:36.663Z,0
2023-03-21T08:37:36.673Z,0
2023-03-21T08:38:36.670Z,0
2023-03-21T08:39:36.725Z,0
2023-03-21T08:40:36.675Z,0
2023-03-21T08:41:36.668Z,0
2023-03-21T08:42:36.691Z,0
2023-03-21T08:43:36.675Z,0
2023-03-21T08:44:36.693Z,0
2023-03-21T08:45:36.955Z,0
2023-03-21T08:46:36.707Z,0
2023-03-21T08:47:36.675Z,0
2023-03-21T08:48:36.694Z,0
2023-03-21T08:49:36.679Z,0
2023-03-21T08:50:36.689Z,0
2023-03-21T08:51:36.679Z,0
2023-03-21T08:52:36.691Z,5.1000000000000005
2023-03-21T08:53:36.688Z,0.5
2023-03-21T08:54:36.697Z,0
2023-03-21T08:55:37.064Z,0
2023-03-21T08:56:37.519Z,0
2023-03-21T08:57:36.682Z,0
2023-03-21T08:58:36.702Z,0
2023-03-21T08:59:36.710Z,0
2023-03-21T09:00:36.823Z,0
2023-03-21T09:01:36.716Z,0
2023-03-21T09:02:36.702Z,0
2023-03-21T09:03:36.702Z,2.2
2023-03-21T09:04:36.728Z,3.7
2023-03-21T09:05:36.925Z,2.6
2023-03-21T09:06:36.711Z,0
2023-03-21T09:07:36.698Z,2.9000000000000004
2023-03-21T09:08:36.714Z,0
2023-03-21T09:09:36.692Z,3.5
2023-03-21T09:10:36.712Z,7.1000000000000005
2023-03-21T09:11:36.698Z,4.6000000000000005
2023-03-21T09:12:36.692Z,1.5
2023-03-21T09:13:36.700Z,7.800000000000001
2023-03-21T09:14:36.698Z,8.4
2023-03-21T09:15:37.140Z,5
2023-03-21T09:16:36.720Z,0
2023-03-21T09:17:36.720Z,0
2023-03-21T09:18:36.708Z,0
2023-03-21T09:19:36.717Z,0
2023-03-21T09:20:36.711Z,4.4
2023-03-21T09:21:36.743Z,3.3000000000000003
2023-03-21T09:22:36.714Z,0
2023-03-21T09:23:36.705Z,0
2023-03-21T09:24:36.721Z,0
2023-03-21T09:25:36.976Z,0
2023-03-21T09:26:36.710Z,2.8000000000000003
2023-03-21T09:27:36.725Z,0
2023-03-21T09:28:36.717Z,0
2023-03-21T09:29:36.721Z,0
2023-03-21T09:30:36.738Z,0
2023-03-21T09:31:36.811Z,0
2023-03-21T09:32:36.742Z,0.8
2023-03-21T09:33:36.722Z,4.7
2023-03-21T09:34:36.722Z,4.5
2023-03-21T09:35:37.058Z,3.1
2023-03-21T09:36:36.732Z,5.6000000000000005
2023-03-21T09:37:36.723Z,0
2023-03-21T09:38:36.715Z,0.9
2023-03-21T09:39:36.729Z,1.4000000000000001
2023-03-21T09:40:36.725Z,0.7000000000000001
2023-03-21T09:41:36.732Z,0.7000000000000001
2023-03-21T09:42:36.721Z,5.9
2023-03-21T09:43:36.752Z,5.2
2023-03-21T09:44:36.730Z,4.4
2023-03-21T09:45:37.058Z,2.8000000000000003
2023-03-21T09:46:36.823Z,3.2
2023-03-21T09:47:36.725Z,0
2023-03-21T09:48:39.563Z,0
2023-03-21T09:49:36.738Z,0
2023-03-21T09:50:36.743Z,0
2023-03-21T09:51:37.087Z,0
2023-03-21T09:52:36.752Z,0
2023-03-21T09:53:36.730Z,0
2023-03-21T09:54:36.733Z,0.6000000000000001
2023-03-21T09:55:36.962Z,2.9000000000000004
2023-03-21T09:56:36.748Z,1.9000000000000001
2023-03-21T09:57:36.731Z,2.4000000000000004
2023-03-21T09:58:36.767Z,6.300000000000001
2023-03-21T09:59:36.749Z,2.4000000000000004
2023-03-21T10:00:36.743Z,2.5
2023-03-21T10:01:36.826Z,5.9
2023-03-21T10:02:36.779Z,1.9000000000000001
2023-03-21T10:03:36.732Z,3.3000000000000003
2023-03-21T10:04:36.814Z,0
2023-03-21T10:05:36.994Z,1.8
2023-03-21T10:06:36.745Z,0
2023-03-21T10:07:36.738Z,0
2023-03-21T10:08:36.760Z,4.9
2023-03-21T10:09:36.756Z,5.800000000000001
2023-03-21T10:10:36.993Z,2
2023-03-21T10:11:36.758Z,0
2023-03-21T10:12:36.738Z,0
2023-03-21T10:13:36.734Z,2.8000000000000003
2023-03-21T10:14:36.746Z,4.9
2023-03-21T10:15:37.300Z,0.7000000000000001
2023-03-21T10:16:36.770Z,3
2023-03-21T10:17:36.737Z,0
2023-03-21T10:18:36.739Z,0
2023-03-21T10:19:36.753Z,0
2023-03-21T10:20:36.785Z,0
2023-03-21T10:21:58.874Z,0
2023-03-21T10:22:36.760Z,0
2023-03-21T10:23:36.774Z,0
2023-03-21T10:24:36.762Z,0
2023-03-21T10:25:37.095Z,0
2023-03-21T10:26:36.756Z,3.8000000000000003
2023-03-21T10:27:36.752Z,4
2023-03-21T10:28:50.180Z,1.4000000000000001
2023-03-21T10:29:36.785Z,8.9
2023-03-21T10:30:36.754Z,10.8
2023-03-21T10:31:36.777Z,5.5
2023-03-21T10:32:36.784Z,5.5
2023-03-21T10:33:36.750Z,0
2023-03-21T10:34:36.751Z,3.9000000000000004
2023-03-21T10:35:37.175Z,7.300000000000001
2023-03-21T10:36:36.783Z,4.800000000000001
2023-03-21T10:37:36.774Z,1.9000000000000001
2023-03-21T10:38:36.761Z,4.4
2023-03-21T10:39:36.771Z,2.1
2023-03-21T10:40:36.763Z,5.7
2023-03-21T10:41:36.761Z,4.1000000000000005
2023-03-21T10:42:36.759Z,3.3000000000000003
2023-03-21T10:43:36.760Z,0
2023-03-21T10:44:36.756Z,4.6000000000000005
2023-03-21T10:45:37.081Z,2.7
2023-03-21T10:46:36.903Z,3.1
2023-03-21T10:47:36.962Z,0
2023-03-21T10:48:36.830Z,0
2023-03-21T10:49:50.235Z,8.6
2023-03-21T10:50:36.792Z,9.700000000000001
2023-03-21T10:51:36.764Z,5.4
2023-03-21T10:52:36.784Z,3.1
2023-03-21T10:53:36.774Z,4.2
2023-03-21T10:54:36.759Z,5.800000000000001
2023-03-21T10:55:36.969Z,7.800000000000001
2023-03-21T10:56:36.765Z,7.2
2023-03-21T10:57:36.765Z,2.4000000000000004
2023-03-21T10:58:36.765Z,0
2023-03-21T10:59:36.768Z,0
2023-03-21T11:00:36.770Z,5.300000000000001
2023-03-21T11:01:36.844Z,2.5
2023-03-21T11:02:36.799Z,4.5
2023-03-21T11:03:36.765Z,3.1
2023-03-21T11:04:36.776Z,4.800000000000001
2023-03-21T11:05:37.236Z,6.5
2023-03-21T11:06:36.768Z,4.2
2023-03-21T11:07:36.781Z,6.4
2023-03-21T11:08:36.791Z,4.800000000000001
2023-03-21T11:09:36.778Z,7.1000000000000005
2023-03-21T11:10:36.785Z,3.2
2023-03-21T11:11:36.779Z,0
2023-03-21T11:12:36.784Z,0
2023-03-21T11:13:36.781Z,7.6000000000000005
2023-03-21T11:14:36.787Z,1.7000000000000002
2023-03-21T11:15:36.940Z,0
2023-03-21T11:16:38.458Z,0
2023-03-21T11:17:36.783Z,0
2023-03-21T11:18:36.780Z,2.4000000000000004
2023-03-21T11:19:36.777Z,1.7000000000000002
2023-03-21T11:20:36.819Z,2.4000000000000004
2023-03-21T11:21:36.790Z,5.4
2023-03-21T11:22:36.787Z,2.2
2023-03-21T11:23:36.778Z,1.4000000000000001
2023-03-21T11:24:36.796Z,9
2023-03-21T11:25:37.251Z,4.5
2023-03-21T11:26:36.795Z,1.8
2023-03-21T11:27:36.780Z,2
2023-03-21T11:28:36.808Z,2.1
2023-03-21T11:29:36.798Z,3.3000000000000003
2023-03-21T11:30:36.852Z,7.9
2023-03-21T11:31:36.794Z,6.7
2023-03-21T11:32:36.793Z,0
2023-03-21T11:33:36.771Z,0
2023-03-21T11:34:36.778Z,7.2
2023-03-21T11:35:37.233Z,2.6
2023-03-21T11:36:36.777Z,7.300000000000001
2023-03-21T11:37:36.790Z,4.3
2023-03-21T11:38:36.808Z,6
2023-03-21T11:39:36.785Z,1.3
2023-03-21T11:40:36.856Z,5.300000000000001
2023-03-21T11:41:36.794Z,0
2023-03-21T11:42:36.790Z,3.5
2023-03-21T11:43:36.790Z,2.5
2023-03-21T11:44:36.792Z,4.1000000000000005
2023-03-21T11:45:37.244Z,5.1000000000000005
2023-03-21T11:46:36.848Z,1.6
2023-03-21T11:47:36.800Z,5.7
2023-03-21T11:48:36.806Z,10.200000000000001
2023-03-21T11:49:36.794Z,10.700000000000001
2023-03-21T11:50:36.815Z,7.2
2023-03-21T11:51:36.796Z,2.1
2023-03-21T11:52:36.803Z,1.8
2023-03-21T11:53:36.799Z,5.4
2023-03-21T11:54:36.800Z,7.7
2023-03-21T11:55:37.132Z,2.2
2023-03-21T11:56:36.825Z,5.4
2023-03-21T11:57:36.814Z,6.800000000000001
2023-03-21T11:58:36.848Z,6.4
2023-03-21T11:59:36.809Z,2.7
2023-03-21T12:00:36.799Z,0
2023-03-21T12:01:36.807Z,6
2023-03-21T12:02:36.912Z,2.2
2023-03-21T12:03:47.050Z,4.6000000000000005
2023-03-21T12:04:36.933Z,0
2023-03-21T12:05:37.178Z,4.4
2023-03-21T12:06:36.820Z,1.9000000000000001
2023-03-21T12:07:36.812Z,4.800000000000001
2023-03-21T12:08:36.836Z,1.5
2023-03-21T12:09:36.808Z,0
2023-03-21T12:10:36.818Z,2.1
2023-03-21T12:11:36.818Z,5.9
2023-03-21T12:12:39.313Z,0
2023-03-21T12:13:36.819Z,1.6
2023-03-21T12:14:36.827Z,3.5
2023-03-21T12:15:37.029Z,7.4
2023-03-21T12:16:36.934Z,11.100000000000001
2023-03-21T12:17:36.814Z,5.6000000000000005
2023-03-21T12:18:36.833Z,4.800000000000001
2023-03-21T12:19:36.819Z,3.1
2023-03-21T12:20:36.818Z,3.6
2023-03-21T12:21:36.818Z,0
2023-03-21T12:22:36.840Z,0
2023-03-21T12:23:36.859Z,0
2023-03-21T12:24:36.826Z,0
2023-03-21T12:25:37.080Z,0
2023-03-21T12:26:36.851Z,4.6000000000000005
2023-03-21T12:27:36.827Z,0
2023-03-21T12:28:36.945Z,8.200000000000001
2023-03-21T12:29:36.829Z,3.6
2023-03-21T12:30:36.832Z,4.800000000000001
2023-03-21T12:31:36.874Z,2.9000000000000004
2023-03-21T12:32:36.838Z,9.5
2023-03-21T12:33:36.832Z,8.9
2023-03-21T12:34:36.842Z,4.5
2023-03-21T12:35:37.094Z,4.7
2023-03-21T12:36:36.838Z,0
2023-03-21T12:37:36.828Z,1.7000000000000002
2023-03-21T12:38:36.835Z,3.6
2023-03-21T12:39:36.836Z,2.6
2023-03-21T12:40:36.847Z,3.6
2023-03-21T12:41:36.834Z,2
2023-03-21T12:42:36.835Z,4.800000000000001
2023-03-21T12:43:36.827Z,4.5
2023-03-21T12:44:36.951Z,8.8
2023-03-21T12:45:46.412Z,6.1000000000000005
2023-03-21T12:46:36.881Z,3
2023-03-21T12:47:36.844Z,0
2023-03-21T12:48:36.841Z,7.7
2023-03-21T12:49:36.845Z,5.800000000000001
2023-03-21T12:50:36.867Z,4
2023-03-21T12:51:36.847Z,5.6000000000000005
2023-03-21T12:52:36.841Z,6.9
2023-03-21T12:53:36.849Z,0.7000000000000001
2023-03-21T12:54:36.845Z,1.6
2023-03-21T12:55:37.076Z,3.7
2023-03-21T12:56:36.853Z,4.7
2023-03-21T12:57:38.320Z,6.7
2023-03-21T12:58:36.843Z,2.7
2023-03-21T12:59:36.844Z,1.6
2023-03-21T13:00:37.439Z,2.7
2023-03-21T13:01:36.853Z,0
2023-03-21T13:02:36.849Z,6.1000000000000005
2023-03-21T13:03:40.073Z,3.1
2023-03-21T13:04:36.970Z,7.300000000000001
2023-03-21T13:05:36.852Z,8.9
2023-03-21T13:06:36.855Z,5.2
2023-03-21T13:07:36.861Z,5.6000000000000005
2023-03-21T13:08:36.867Z,0
2023-03-21T13:09:37.852Z,11.4
2023-03-21T13:10:37.171Z,6.6000000000000005
2023-03-21T13:11:36.881Z,3.6
2023-03-21T13:12:36.858Z,3.7
2023-03-21T13:13:36.851Z,7.2
2023-03-21T13:14:36.862Z,1.7000000000000002
2023-03-21T13:15:36.860Z,1.3
2023-03-21T13:16:37.044Z,4.1000000000000005
2023-03-21T13:17:36.858Z,9.700000000000001
2023-03-21T13:18:36.860Z,7.800000000000001
2023-03-21T13:19:36.865Z,7.800000000000001
2023-03-21T13:20:37.196Z,0
2023-03-21T13:21:36.864Z,2.6
2023-03-21T13:22:36.866Z,14.700000000000001
2023-03-21T13:23:36.878Z,4.7
2023-03-21T13:24:36.869Z,6.9
2023-03-21T13:25:36.871Z,0
2023-03-21T13:26:36.875Z,6.4
2023-03-21T13:27:36.883Z,6.800000000000001
2023-03-21T13:28:36.868Z,4.4
2023-03-21T13:29:36.885Z,5.9
2023-03-21T13:30:37.392Z,7.7
2023-03-21T13:31:50.787Z,8.200000000000001
2023-03-21T13:32:38.132Z,4.2
2023-03-21T13:33:36.873Z,5.4
2023-03-21T13:34:36.872Z,7.1000000000000005
2023-03-21T13:35:37.225Z,7.4
2023-03-21T13:36:36.883Z,7.6000000000000005
2023-03-21T13:37:36.891Z,0
2023-03-21T13:38:36.877Z,4.800000000000001
2023-03-21T13:39:36.890Z,5.6000000000000005
2023-03-21T13:40:37.221Z,5.5
2023-03-21T13:41:36.884Z,7.300000000000001
2023-03-21T13:42:36.893Z,3.2
2023-03-21T13:43:36.892Z,5.1000000000000005
2023-03-21T13:44:36.893Z,3.9000000000000004